Wolcottville, IN (46795)

6:18 PM EST on February 09, 2016 (GMT -0500)
Adams Lake | | Change Station
CLOSE
Current Station
Personal Weather Station
Location: Wolcottville, IN
Elevation: 955 ft
Nearby Weather Stations

Elev 955 ft 41.56 °N, 85.32 °W | Updated 8 minutes ago

Snow
Snow
22.5 °F
Feels Like 12 °F
N
9.9
Wind Variable Wind from WSW

Today
High -- | Low -- °F
--% Chance of Precip.
Yesterday
High -- | Low -- °F
Precip. -- in
Pressure 29.74 in
Visibility 10.0 miles
Clouds Scattered Clouds 1800 ft
Mostly Cloudy 2600 ft
Overcast 3400 ft
Windchill 12 °F
Dew Point 16 °F
Humidity 76%
Rainfall 0.00 in
Snow Depth Not available.
7:44 AM 6:06 PM
New Moon, 2% visible
METAR KANQ 092335Z AUTO 30011KT 10SM SCT018 BKN026 OVC034 M05/M07 A2974 RMK
Pressure 29.74 in
Visibility 10.0 miles
Clouds Scattered Clouds 1800 ft
Mostly Cloudy 2600 ft
Overcast 3400 ft
Windchill 12 °F
Dew Point 16 °F
Humidity 76%
Rainfall 0.00 in
Snow Depth Not available.
7:44 AM 6:06 PM
New Moon, 2% visible
METAR KANQ 092335Z AUTO 30011KT 10SM SCT018 BKN026 OVC034 M05/M07 A2974 RMK

10-Day Weather Forecast

Almanac

Astronomy

Feb. 09, 2016 Rise Set
Actual Time
Civil Twilight
Nautical Twilight
Astronomical Twilight
Moon
Length of Visible Light
Length of Day
Tomorrow will be .
, % of the Moon is Illuminated

Today's Extremes

State Highs State Lows

Community

WunderPhotos

Upload Photos

1,891,728 photos uploaded!

WunderBlog® & News

Nearby

Air Quality

  Air Quality AQ Index Pollutant
Not available.

Snow Depth

Station Depth Elevation

Earthquake Activity

City Distance Mag. Time & Date
Minimum magnitude displayed is 2.5.

Coastal Water Temperatures

Place Temperature

Stations

Nearby Weather Stations

Station Location Temp. Windchill Dew Point Humidity Wind Precip. Elev Updated Type
                   

Watches & Warnings

There are currently no watches in effect.